Time;durP1;ratioP1;P1;durP2;ratioP2;P2;SDS_P1;SDS_P2;PMS_P1;PMS_P2;Temp;Humidity;BMP_temperature;BMP_pressure;BME280_temperature;BME280_humidity;BME280_pressure;Samples;Min_cycle;Max_cycle;Signal;HPM_P1;HPM_P2
2022/05/25 00:02:21;;;;;;;3.53;0.08;;;25.50;44.10;;;;;;4968423;28;20054;-48
2022/05/25 00:04:49;;;;;;;2.45;0.75;;;25.50;44.20;;;;;;4970164;28;20050;-46
2022/05/25 00:07:16;;;;;;;0.82;0.13;;;25.50;44.20;;;;;;4967798;28;20117;-50
2022/05/25 00:09:44;;;;;;;1.27;0.45;;;25.50;44.20;;;;;;4967961;28;20422;-47
2022/05/25 00:12:11;;;;;;;0.17;0.00;;;25.50;44.20;;;;;;4967940;28;20051;-46
2022/05/25 00:14:40;;;;;;;3.92;0.45;;;25.40;44.20;;;;;;4967749;28;20073;-45
2022/05/25 00:17:07;;;;;;;0.47;0.47;;;25.50;44.20;;;;;;4968471;28;20043;-46
2022/05/25 00:22:18;;;;;;;0.10;0.00;;;25.40;44.20;;;;;;4966706;28;21020;-49
2022/05/25 00:24:45;;;;;;;0.10;0.00;;;25.40;44.20;;;;;;4967766;28;20042;-46
2022/05/25 00:27:13;;;;;;;1.92;0.13;;;25.40;44.40;;;;;;4967881;28;20665;-46
2022/05/25 00:29:41;;;;;;;0.13;0.00;;;25.40;44.30;;;;;;4967590;28;20039;-46
2022/05/25 00:32:09;;;;;;;0.10;0.00;;;25.40;44.40;;;;;;4968543;28;20046;-45
2022/05/25 00:34:36;;;;;;;0.45;0.10;;;25.40;44.40;;;;;;4951387;28;20115;-46
2022/05/25 00:37:03;;;;;;;0.10;0.10;;;25.40;44.40;;;;;;4967969;28;20459;-46
2022/05/25 00:39:30;;;;;;;1.63;0.03;;;25.40;44.60;;;;;;4967834;28;20046;-46
2022/05/25 00:41:58;;;;;;;0.95;0.05;;;25.40;44.60;;;;;;4967990;28;20539;-47
2022/05/25 00:44:25;;;;;;;0.10;0.10;;;25.40;44.60;;;;;;4968603;28;20039;-46
2022/05/25 00:46:53;;;;;;;1.35;0.10;;;25.40;44.70;;;;;;4965646;28;20133;-46
2022/05/25 00:49:26;;;;;;;0.05;0.00;;;25.40;44.80;;;;;;4968705;28;20042;-47
2022/05/25 00:51:57;;;;;;;0.85;0.10;;;25.40;44.80;;;;;;4967548;28;20082;-48
2022/05/25 00:54:28;;;;;;;3.65;0.10;;;25.40;44.80;;;;;;4967541;28;20121;-46
2022/05/25 00:57:00;;;;;;;0.20;0.00;;;25.30;44.70;;;;;;4967908;28;20094;-47
2022/05/25 00:59:31;;;;;;;0.00;0.00;;;25.30;44.70;;;;;;4964540;28;20050;-48
2022/05/25 01:02:00;;;;;;;0.10;0.10;;;25.30;44.70;;;;;;4950913;28;20055;-46
2022/05/25 01:04:28;;;;;;;0.45;0.00;;;25.30;44.70;;;;;;4968185;28;20129;-48
2022/05/25 01:07:20;;;;;;;0.15;0.00;;;25.30;44.70;;;;;;4967663;28;20053;-47
2022/05/25 01:09:58;;;;;;;0.15;0.00;;;25.30;44.70;;;;;;4966157;28;20094;-46
2022/05/25 01:12:39;;;;;;;0.00;0.00;;;25.30;44.90;;;;;;4967026;28;20039;-46
2022/05/25 01:15:15;;;;;;;0.68;0.00;;;25.30;44.90;;;;;;4967261;28;20046;-47
2022/05/25 01:17:52;;;;;;;0.30;0.30;;;25.30;44.90;;;;;;4967222;28;20175;-46
2022/05/25 01:20:27;;;;;;;0.35;0.35;;;25.30;44.90;;;;;;4967169;28;20039;-49
2022/05/25 01:23:18;;;;;;;0.50;0.10;;;25.30;45.00;;;;;;4968352;28;20043;-46
2022/05/25 01:26:19;;;;;;;0.10;0.10;;;25.30;45.10;;;;;;4967897;28;20043;-48
2022/05/25 01:29:15;;;;;;;0.10;0.00;;;25.30;45.10;;;;;;4968422;28;20126;-48
2022/05/25 01:31:48;;;;;;;0.00;0.00;;;25.30;45.10;;;;;;4967458;28;20582;-47
2022/05/25 01:34:23;;;;;;;0.10;0.00;;;25.30;45.20;;;;;;4970528;28;20050;-47
2022/05/25 01:36:57;;;;;;;1.03;0.00;;;25.20;45.20;;;;;;4966936;28;20061;-46
2022/05/25 01:39:27;;;;;;;0.10;0.00;;;25.20;45.10;;;;;;4966746;28;20067;-46
2022/05/25 01:42:01;;;;;;;0.30;0.10;;;25.20;45.20;;;;;;4966305;28;20074;-49
2022/05/25 01:44:33;;;;;;;1.10;0.00;;;25.20;45.10;;;;;;4962307;28;20602;-45
2022/05/25 01:47:05;;;;;;;0.00;0.00;;;25.20;45.20;;;;;;4967181;28;20122;-46
2022/05/25 01:49:39;;;;;;;1.17;0.00;;;25.20;45.10;;;;;;4968166;28;20097;-45
2022/05/25 01:52:09;;;;;;;0.35;0.00;;;25.20;45.20;;;;;;4966533;28;20070;-47
2022/05/25 01:54:39;;;;;;;0.08;0.00;;;25.20;45.20;;;;;;4948997;28;20055;-49
2022/05/25 01:57:12;;;;;;;0.03;0.00;;;25.20;45.20;;;;;;4966236;28;20035;-48
2022/05/25 01:59:39;;;;;;;0.70;0.65;;;25.20;45.30;;;;;;4967151;28;20162;-47
2022/05/25 02:04:56;;;;;;;1.63;0.00;;;25.20;45.40;;;;;;4946676;28;20047;-47
2022/05/25 02:07:33;;;;;;;0.00;0.00;;;25.10;45.30;;;;;;4967815;28;20050;-46
2022/05/25 02:10:11;;;;;;;0.00;0.00;;;25.20;45.40;;;;;;4966372;28;20133;-46
2022/05/25 02:12:53;;;;;;;0.65;0.00;;;25.20;45.40;;;;;;4966879;28;20050;-47
2022/05/25 02:15:31;;;;;;;0.05;0.00;;;25.20;45.50;;;;;;4967577;28;20054;-48
2022/05/25 02:18:06;;;;;;;1.95;0.10;;;25.10;45.40;;;;;;4966743;28;20043;-49
2022/05/25 02:20:40;;;;;;;0.10;0.10;;;25.10;45.50;;;;;;4973228;28;20070;-45
2022/05/25 02:23:15;;;;;;;1.55;0.00;;;25.10;45.50;;;;;;4973360;28;20149;-47
2022/05/25 02:25:44;;;;;;;;;;;25.10;45.50;;;;;;4973867;28;20057;-49
2022/05/25 02:28:15;;;;;;;0.00;0.00;;;25.00;45.40;;;;;;4972579;28;19937;-46
2022/05/25 02:30:47;;;;;;;0.00;0.00;;;25.10;45.80;;;;;;4971901;28;20599;-46
2022/05/25 02:33:20;;;;;;;0.00;0.00;;;25.10;45.80;;;;;;4973040;28;20055;-48
2022/05/25 02:35:49;;;;;;;0.10;0.00;;;25.10;45.80;;;;;;4972936;28;20499;-48
2022/05/25 02:38:17;;;;;;;0.00;0.00;;;25.00;45.80;;;;;;4972544;28;20053;-47
2022/05/25 02:40:45;;;;;;;0.00;0.00;;;25.10;45.90;;;;;;4974250;28;20039;-46
2022/05/25 02:43:12;;;;;;;0.20;0.20;;;25.10;45.90;;;;;;4972372;28;20058;-47
2022/05/25 02:45:40;;;;;;;0.00;0.00;;;25.10;45.90;;;;;;4972446;28;20114;-46
2022/05/25 02:48:07;;;;;;;0.00;0.00;;;25.00;45.90;;;;;;4972773;28;20053;-48
2022/05/25 02:50:36;;;;;;;0.10;0.00;;;25.10;46.00;;;;;;4973083;28;20110;-45
2022/05/25 02:53:04;;;;;;;0.10;0.00;;;25.10;45.90;;;;;;4972645;28;20046;-45
2022/05/25 02:55:32;;;;;;;0.00;0.00;;;25.00;45.90;;;;;;4973792;28;20055;-47
2022/05/25 02:57:59;;;;;;;1.17;0.85;;;25.00;45.90;;;;;;4971261;28;20569;-45
2022/05/25 03:00:26;;;;;;;0.47;0.00;;;25.00;46.00;;;;;;4972772;28;20046;-46
2022/05/25 03:02:56;;;;;;;0.45;0.00;;;25.00;46.00;;;;;;4972584;28;20519;-45
2022/05/25 03:05:24;;;;;;;0.00;0.00;;;25.00;46.00;;;;;;4971351;28;20041;-48
2022/05/25 03:07:52;;;;;;;0.00;0.00;;;25.00;46.00;;;;;;4973573;28;20043;-47
2022/05/25 03:10:19;;;;;;;0.00;0.00;;;25.00;45.90;;;;;;4973101;28;20187;-47
2022/05/25 03:12:47;;;;;;;0.00;0.00;;;25.00;46.00;;;;;;4972134;28;20129;-46
2022/05/25 03:15:14;;;;;;;0.10;0.00;;;25.00;46.00;;;;;;4972354;28;20051;-48
2022/05/25 03:17:41;;;;;;;0.00;0.00;;;25.00;46.00;;;;;;4972711;28;20175;-46
2022/05/25 03:20:11;;;;;;;2.33;0.00;;;25.00;46.00;;;;;;4954864;28;20428;-49
2022/05/25 03:22:40;;;;;;;1.95;0.00;;;25.00;46.00;;;;;;4973822;28;20458;-46
2022/05/25 03:25:09;;;;;;;0.00;0.00;;;24.90;46.00;;;;;;4972263;28;20047;-45
2022/05/25 03:27:37;;;;;;;1.08;0.00;;;25.00;46.10;;;;;;4969820;28;20197;-47
2022/05/25 03:30:05;;;;;;;3.08;0.00;;;24.90;46.00;;;;;;4969780;28;20117;-46
2022/05/25 03:32:32;;;;;;;0.10;0.00;;;24.90;46.00;;;;;;4970341;28;20507;-46
2022/05/25 03:35:00;;;;;;;0.20;0.20;;;24.90;46.00;;;;;;4970490;28;20046;-49
2022/05/25 03:37:27;;;;;;;0.08;0.00;;;24.90;46.00;;;;;;4970783;28;20101;-45
2022/05/25 03:39:54;;;;;;;0.00;0.00;;;24.90;46.00;;;;;;4970252;28;20030;-47
2022/05/25 03:42:23;;;;;;;0.32;0.00;;;24.90;46.10;;;;;;4969784;28;20055;-49
2022/05/25 03:44:50;;;;;;;0.00;0.00;;;24.90;46.10;;;;;;4970894;28;20110;-47
2022/05/25 03:47:18;;;;;;;0.00;0.00;;;24.90;46.10;;;;;;4970129;28;20046;-46
2022/05/25 03:49:46;;;;;;;0.00;0.00;;;24.90;46.10;;;;;;4971999;28;20089;-46
2022/05/25 03:52:13;;;;;;;0.00;0.00;;;24.90;46.10;;;;;;4952365;28;20651;-47
2022/05/25 03:54:40;;;;;;;0.00;0.00;;;24.90;46.10;;;;;;4970055;28;20049;-48
2022/05/25 03:57:08;;;;;;;0.20;0.08;;;24.90;46.10;;;;;;4969714;28;20824;-45
2022/05/25 03:59:36;;;;;;;0.10;0.00;;;24.90;46.10;;;;;;4969204;28;20503;-47
2022/05/25 04:02:03;;;;;;;0.03;0.00;;;24.90;46.10;;;;;;4968939;28;20054;-46
2022/05/25 04:04:31;;;;;;;0.00;0.00;;;24.90;46.10;;;;;;4970284;28;20515;-45
2022/05/25 04:06:58;;;;;;;0.00;0.00;;;24.90;46.10;;;;;;4968312;28;20404;-46
2022/05/25 04:09:25;;;;;;;0.43;0.43;;;24.90;46.10;;;;;;4967756;28;20047;-46
2022/05/25 04:11:52;;;;;;;0.00;0.00;;;24.90;46.10;;;;;;4968283;28;20071;-46
2022/05/25 04:14:19;;;;;;;0.00;0.00;;;24.90;46.10;;;;;;4968633;28;20035;-47
2022/05/25 04:16:48;;;;;;;1.27;0.00;;;24.90;46.10;;;;;;4970416;28;20055;-45
2022/05/25 04:19:15;;;;;;;0.10;0.00;;;24.90;46.80;;;;;;4968362;28;20035;-47
2022/05/25 04:21:42;;;;;;;0.00;0.00;;;24.80;46.10;;;;;;4967609;28;20058;-46
2022/05/25 04:24:12;;;;;;;0.28;0.00;;;24.80;46.20;;;;;;4968089;28;20530;-45
2022/05/25 04:26:39;;;;;;;0.03;0.00;;;24.80;46.20;;;;;;4968147;28;20054;-49
2022/05/25 04:29:06;;;;;;;0.00;0.00;;;24.80;46.20;;;;;;4950936;28;20080;-46
2022/05/25 04:31:34;;;;;;;1.17;0.00;;;24.80;46.20;;;;;;4969474;28;20149;-44
2022/05/25 04:34:02;;;;;;;0.10;0.00;;;24.80;46.20;;;;;;4967672;28;20062;-46
2022/05/25 04:36:30;;;;;;;0.00;0.00;;;24.80;46.20;;;;;;4967861;28;20113;-46
2022/05/25 04:38:57;;;;;;;0.28;0.00;;;24.80;46.20;;;;;;4967534;28;20060;-45
2022/05/25 04:41:24;;;;;;;4.80;0.03;;;24.80;46.20;;;;;;4968260;28;20051;-45
2022/05/25 04:43:51;;;;;;;0.10;0.00;;;24.80;46.20;;;;;;4969085;28;20042;-46
2022/05/25 04:46:18;;;;;;;0.00;0.00;;;24.80;46.20;;;;;;4967399;28;20057;-45
2022/05/25 04:48:45;;;;;;;0.10;0.00;;;24.80;46.20;;;;;;4967671;28;20038;-47
2022/05/25 04:51:14;;;;;;;4.65;0.45;;;24.80;46.20;;;;;;4968524;28;20042;-48
2022/05/25 04:53:43;;;;;;;0.10;0.00;;;24.80;46.20;;;;;;4968114;28;20046;-45
2022/05/25 04:58:56;;;;;;;0.00;0.00;;;24.80;46.90;;;;;;4969358;28;20043;-51
2022/05/25 05:01:23;;;;;;;1.25;0.00;;;24.80;46.30;;;;;;4969023;28;20047;-47
2022/05/25 05:03:50;;;;;;;0.00;0.00;;;24.80;46.30;;;;;;4968082;28;20050;-46
2022/05/25 05:06:19;;;;;;;0.08;0.00;;;24.80;46.30;;;;;;4968463;28;20511;-50
2022/05/25 05:08:46;;;;;;;1.38;0.00;;;24.80;46.30;;;;;;4968672;28;20388;-46
2022/05/25 05:11:16;;;;;;;0.10;0.00;;;24.80;46.30;;;;;;4968095;28;20078;-46
2022/05/25 05:13:44;;;;;;;0.10;0.00;;;24.80;46.30;;;;;;4969341;28;20055;-46
2022/05/25 05:16:15;;;;;;;0.50;0.10;;;24.80;46.30;;;;;;4967210;28;20042;-46
2022/05/25 05:18:43;;;;;;;0.00;0.00;;;24.80;46.30;;;;;;4965972;28;20419;-46
2022/05/25 05:21:35;;;;;;;0.05;0.05;;;24.80;46.30;;;;;;4908930;29;20163;-46
2022/05/25 05:24:03;;;;;;;0.00;0.00;;;24.80;46.30;;;;;;4908420;29;20071;-46
2022/05/25 05:26:30;;;;;;;1.20;0.00;;;24.80;46.20;;;;;;4910299;29;20144;-47
2022/05/25 05:28:58;;;;;;;1.55;0.00;;;24.80;46.20;;;;;;4911872;29;20105;-48
2022/05/25 05:31:25;;;;;;;0.00;0.00;;;24.80;46.20;;;;;;4913039;29;20058;-46
2022/05/25 05:33:53;;;;;;;0.45;0.00;;;24.80;46.20;;;;;;4911979;29;20100;-48
2022/05/25 05:36:23;;;;;;;0.00;0.00;;;24.80;46.20;;;;;;4911710;29;20516;-45
2022/05/25 05:38:57;;;;;;;0.00;0.00;;;24.90;46.30;;;;;;4907752;29;20052;-48
2022/05/25 05:41:27;;;;;;;0.00;0.00;;;24.80;46.20;;;;;;4905813;29;20408;-48
2022/05/25 05:43:54;;;;;;;0.13;0.00;;;24.80;46.20;;;;;;4911681;29;20180;-47
2022/05/25 05:46:22;;;;;;;0.68;0.03;;;24.80;46.20;;;;;;4912692;29;20075;-49
2022/05/25 05:48:50;;;;;;;1.55;0.40;;;24.80;46.30;;;;;;4909687;29;20048;-47
2022/05/25 05:51:17;;;;;;;0.70;0.17;;;24.80;46.30;;;;;;4911560;29;20047;-49
2022/05/25 05:53:45;;;;;;;0.00;0.00;;;24.90;46.30;;;;;;4911231;29;20117;-46
2022/05/25 05:56:14;;;;;;;0.00;0.00;;;24.80;46.30;;;;;;4908818;29;20155;-47
2022/05/25 05:58:41;;;;;;;1.45;0.00;;;24.90;46.40;;;;;;4941114;28;20061;-46
2022/05/25 06:01:08;;;;;;;1.45;0.00;;;24.80;46.30;;;;;;4966876;28;20065;-45
2022/05/25 06:03:36;;;;;;;0.05;0.00;;;24.90;46.30;;;;;;4967244;28;20415;-46
2022/05/25 06:06:03;;;;;;;2.00;0.00;;;24.90;46.30;;;;;;4967010;28;20122;-49
2022/05/25 06:08:30;;;;;;;0.10;0.00;;;24.90;46.30;;;;;;4967129;28;20657;-47
2022/05/25 06:10:58;;;;;;;0.90;0.20;;;24.90;46.20;;;;;;4967626;28;20046;-48
2022/05/25 06:13:27;;;;;;;0.00;0.00;;;24.90;46.20;;;;;;4968278;28;20803;-47
2022/05/25 06:21:26;;;;;;;0.20;0.00;;;24.90;46.10;;;;;;4962698;28;20101;-46
2022/05/25 06:23:54;;;;;;;0.10;0.10;;;24.90;46.10;;;;;;4967238;28;20129;-46
2022/05/25 06:26:25;;;;;;;0.45;0.00;;;24.90;46.10;;;;;;4966948;28;20047;-45
2022/05/25 06:28:54;;;;;;;0.15;0.15;;;25.00;46.10;;;;;;4968616;28;20138;-47
2022/05/25 06:31:21;;;;;;;0.10;0.00;;;25.00;46.00;;;;;;4967269;28;20142;-46
2022/05/25 06:33:48;;;;;;;0.47;0.00;;;25.00;46.00;;;;;;4966941;28;20133;-46
2022/05/25 06:36:18;;;;;;;0.00;0.00;;;25.00;46.00;;;;;;4966613;28;20161;-46
2022/05/25 06:38:46;;;;;;;0.75;0.00;;;25.00;45.90;;;;;;4966665;28;20047;-46
2022/05/25 06:41:14;;;;;;;0.30;0.00;;;25.10;46.00;;;;;;4966797;28;20216;-49
2022/05/25 06:43:42;;;;;;;0.20;0.00;;;25.00;45.90;;;;;;4967902;28;20059;-46
2022/05/25 06:46:13;;;;;;;1.40;0.00;;;25.00;45.80;;;;;;4965921;28;20038;-46
2022/05/25 06:48:40;;;;;;;0.00;0.00;;;25.10;45.90;;;;;;4966198;28;20054;-46
2022/05/25 06:51:11;;;;;;;0.00;0.00;;;25.10;45.90;;;;;;4963363;28;20045;-45
2022/05/25 06:53:38;;;;;;;0.10;0.00;;;25.10;45.80;;;;;;4966067;28;20121;-47
2022/05/25 06:56:07;;;;;;;0.43;0.10;;;25.10;45.70;;;;;;4966318;28;20126;-47
2022/05/25 06:58:34;;;;;;;0.68;0.03;;;25.10;45.70;;;;;;4967366;28;20074;-46
2022/05/25 07:01:02;;;;;;;0.00;0.00;;;25.10;45.60;;;;;;4965163;28;20062;-46
2022/05/25 07:03:31;;;;;;;0.08;0.08;;;25.10;46.20;;;;;;4967866;28;20043;-49
2022/05/25 07:05:59;;;;;;;0.00;0.00;;;25.20;45.60;;;;;;4969398;28;20106;-47
2022/05/25 07:08:26;;;;;;;0.47;0.00;;;25.20;45.60;;;;;;4969268;28;20035;-47
2022/05/25 07:10:53;;;;;;;0.10;0.00;;;25.20;45.60;;;;;;4971246;28;20042;-46
2022/05/25 07:13:21;;;;;;;0.05;0.05;;;25.20;45.60;;;;;;4969566;28;20098;-45
2022/05/25 07:15:49;;;;;;;0.55;0.10;;;25.20;45.50;;;;;;4967252;28;20144;-46
2022/05/25 07:18:16;;;;;;;0.20;0.00;;;25.20;45.50;;;;;;4969617;28;20038;-46
2022/05/25 07:20:45;;;;;;;0.47;0.00;;;25.20;45.50;;;;;;4969180;28;20110;-46
2022/05/25 07:23:28;;;;;;;0.08;0.00;;;25.20;45.50;;;;;;4968956;28;20041;-47
2022/05/25 07:25:55;;;;;;;0.00;0.00;;;25.20;45.00;;;;;;4970600;28;20455;-54
2022/05/25 07:28:22;;;;;;;0.45;0.00;;;25.20;45.00;;;;;;4969555;28;20034;-51
2022/05/25 07:30:53;;;;;;;0.40;0.00;;;25.30;45.00;;;;;;4969278;28;20090;-69
2022/05/25 07:33:20;;;;;;;0.45;0.00;;;25.40;45.10;;;;;;4966264;28;20067;-61
2022/05/25 07:35:49;;;;;;;1.88;0.00;;;25.50;45.00;;;;;;4967339;28;20039;-56
2022/05/25 07:38:16;;;;;;;0.10;0.00;;;25.70;44.80;;;;;;4953629;28;20051;-57
2022/05/25 07:40:45;;;;;;;0.90;0.10;;;26.00;44.40;;;;;;4970488;28;20142;-52
2022/05/25 07:43:16;;;;;;;1.88;0.10;;;26.30;43.90;;;;;;4973634;28;20035;-57
2022/05/25 07:45:46;;;;;;;0.00;0.00;;;26.50;43.50;;;;;;4972868;28;20051;-63
2022/05/25 07:48:13;;;;;;;1.25;0.20;;;26.70;43.20;;;;;;4963322;28;20967;-52
2022/05/25 07:50:42;;;;;;;0.10;0.10;;;26.90;43.00;;;;;;4961191;28;20039;-53
2022/05/25 07:55:54;;;;;;;2.80;0.00;;;27.30;42.40;;;;;;4964308;28;20079;-54
2022/05/25 07:58:23;;;;;;;1.67;0.35;;;27.40;42.20;;;;;;4967060;28;20110;-54
2022/05/25 08:00:54;;;;;;;2.38;0.38;;;27.50;41.90;;;;;;4948483;28;20031;-53
2022/05/25 08:06:07;;;;;;;0.20;0.00;;;27.70;41.50;;;;;;4963482;28;20042;-60
2022/05/25 08:08:37;;;;;;;2.38;0.10;;;27.80;41.50;;;;;;4960496;28;20803;-61
2022/05/25 08:11:08;;;;;;;0.38;0.32;;;27.90;41.40;;;;;;4962851;28;20451;-60
2022/05/25 08:13:36;;;;;;;3.75;0.15;;;28.00;41.40;;;;;;4964129;28;20046;-60
2022/05/25 08:16:04;;;;;;;3.58;0.13;;;28.10;41.40;;;;;;4966533;28;20047;-64
2022/05/25 08:18:32;;;;;;;0.65;0.00;;;28.10;41.20;;;;;;4966220;28;20043;-58
2022/05/25 08:20:59;;;;;;;0.20;0.00;;;28.20;41.10;;;;;;4956433;28;20047;-52
2022/05/25 08:23:27;;;;;;;0.95;0.10;;;28.30;40.90;;;;;;4965682;28;20046;-56
2022/05/25 08:25:56;;;;;;;1.55;0.03;;;28.40;40.80;;;;;;4967643;28;20042;-58
2022/05/25 08:28:23;;;;;;;0.70;0.00;;;28.40;40.60;;;;;;4962656;28;20074;-58
2022/05/25 08:30:51;;;;;;;0.55;0.00;;;28.50;40.60;;;;;;4968069;28;20125;-60
2022/05/25 08:33:20;;;;;;;0.10;0.10;;;28.50;40.40;;;;;;4969623;28;20051;-60
2022/05/25 08:35:48;;;;;;;1.75;0.10;;;28.60;40.40;;;;;;4965876;28;20046;-55
2022/05/25 08:38:15;;;;;;;0.68;0.10;;;28.60;40.20;;;;;;4966219;28;20051;-59
2022/05/25 08:40:44;;;;;;;1.45;0.10;;;28.70;40.20;;;;;;4967321;28;20053;-60
2022/05/25 08:43:19;;;;;;;0.20;0.00;;;28.70;40.10;;;;;;4966552;28;20454;-61
2022/05/25 08:45:50;;;;;;;0.10;0.10;;;28.80;40.10;;;;;;4966109;28;20043;-58
2022/05/25 08:48:20;;;;;;;0.80;0.10;;;28.80;40.10;;;;;;4965550;28;20376;-60
2022/05/25 08:50:52;;;;;;;2.58;0.32;;;28.80;39.70;;;;;;4963341;28;20205;-60
2022/05/25 08:53:21;;;;;;;0.70;0.65;;;28.80;39.50;;;;;;4965885;28;20138;-57
2022/05/25 08:55:58;;;;;;;3.20;0.28;;;28.80;39.40;;;;;;4966838;28;20047;-60
2022/05/25 08:58:42;;;;;;;1.75;1.65;;;28.90;39.30;;;;;;4966605;28;20253;-60
2022/05/25 09:01:12;;;;;;;0.10;0.10;;;28.90;39.30;;;;;;4965576;28;20506;-61
2022/05/25 09:03:48;;;;;;;0.63;0.03;;;28.90;39.30;;;;;;4964491;28;20416;-58
2022/05/25 09:06:22;;;;;;;2.85;0.10;;;28.90;39.30;;;;;;4965303;28;20039;-58
2022/05/25 09:09:01;;;;;;;0.63;0.00;;;28.90;39.10;;;;;;4965526;28;20043;-60
2022/05/25 09:11:35;;;;;;;0.68;0.00;;;28.90;39.00;;;;;;4964250;28;20049;-51
2022/05/25 09:14:08;;;;;;;0.20;0.00;;;28.90;38.90;;;;;;4965029;28;20046;-59
2022/05/25 09:16:37;;;;;;;0.98;0.00;;;28.90;38.90;;;;;;4965122;28;20042;-62
2022/05/25 09:19:09;;;;;;;0.32;0.10;;;29.00;38.80;;;;;;4965025;28;20557;-60
2022/05/25 09:21:41;;;;;;;0.52;0.10;;;29.00;38.80;;;;;;4965392;28;20098;-56
2022/05/25 09:24:11;;;;;;;0.70;0.00;;;29.00;38.70;;;;;;4963632;28;20129;-55
2022/05/25 09:26:39;;;;;;;0.22;0.10;;;29.00;38.50;;;;;;4964678;28;20038;-53
2022/05/25 09:29:09;;;;;;;0.00;0.00;;;29.00;38.40;;;;;;4965241;28;20058;-53
2022/05/25 09:31:43;;;;;;;0.10;0.10;;;29.10;38.50;;;;;;4966335;28;20137;-59
2022/05/25 09:34:14;;;;;;;0.30;0.00;;;29.00;38.30;;;;;;4964012;28;20046;-58
2022/05/25 09:36:46;;;;;;;0.10;0.05;;;29.00;38.10;;;;;;4960104;28;20050;-56
2022/05/25 09:39:21;;;;;;;0.20;0.00;;;29.10;38.10;;;;;;4964513;28;20043;-51
2022/05/25 09:41:55;;;;;;;1.75;0.10;;;29.10;38.00;;;;;;4965267;28;20047;-56
2022/05/25 09:44:25;;;;;;;3.75;0.47;;;29.10;38.00;;;;;;4958475;28;20043;-57
2022/05/25 09:46:57;;;;;;;0.57;0.00;;;29.10;38.00;;;;;;4966060;28;20063;-55
2022/05/25 09:49:32;;;;;;;0.85;0.00;;;29.10;38.60;;;;;;4965466;28;20038;-60
2022/05/25 09:52:03;;;;;;;0.52;0.00;;;29.20;38.00;;;;;;4962858;28;20054;-55
2022/05/25 09:54:34;;;;;;;0.00;0.00;;;29.10;38.00;;;;;;4963325;28;20702;-56
2022/05/25 09:57:06;;;;;;;0.43;0.08;;;29.20;37.90;;;;;;4963018;28;20046;-54
2022/05/25 09:59:40;;;;;;;0.38;0.00;;;29.20;37.90;;;;;;4964399;28;20072;-55
2022/05/25 10:02:24;;;;;;;0.30;0.00;;;29.20;37.90;;;;;;4962816;28;20113;-47
2022/05/25 10:04:56;;;;;;;1.10;0.10;;;29.20;37.80;;;;;;4961278;28;20055;-50
2022/05/25 10:07:32;;;;;;;1.85;0.10;;;29.20;37.80;;;;;;4965375;28;20050;-48
2022/05/25 10:10:01;;;;;;;0.13;0.00;;;29.30;37.70;;;;;;4962467;28;20053;-55
2022/05/25 10:12:33;;;;;;;17.35;0.73;;;29.30;37.80;;;;;;4967472;28;20039;-49
2022/05/25 10:15:04;;;;;;;15.40;1.48;;;29.20;39.20;;;;;;4967854;28;20035;-51
2022/05/25 10:17:35;;;;;;;8.07;0.57;;;29.10;40.00;;;;;;4967441;28;20054;-49
2022/05/25 10:20:18;;;;;;;10.75;0.98;;;29.00;40.70;;;;;;4968101;28;20045;-51
2022/05/25 10:22:46;;;;;;;17.95;1.35;;;28.80;41.00;;;;;;4968378;28;20515;-48
2022/05/25 10:25:26;;;;;;;9.35;2.05;;;28.70;41.50;;;;;;4968071;28;20058;-49
2022/05/25 10:27:54;;;;;;;9.13;0.30;;;28.60;41.90;;;;;;4967209;28;20042;-48
2022/05/25 10:39:12;;;;;;;4.35;0.30;;;28.20;42.50;;;;;;4969773;28;20566;-50
2022/05/25 10:41:43;;;;;;;5.85;0.50;;;28.20;42.40;;;;;;4965672;28;20047;-51
2022/05/25 10:44:18;;;;;;;7.70;0.25;;;28.10;42.40;;;;;;4971080;28;20526;-52
2022/05/25 10:46:53;;;;;;;3.30;0.40;;;28.10;42.40;;;;;;4972792;28;20067;-48
2022/05/25 10:49:27;;;;;;;7.95;0.57;;;28.00;42.20;;;;;;4971548;28;20134;-52
2022/05/25 10:52:00;;;;;;;0.77;0.10;;;28.00;42.40;;;;;;4970609;28;20046;-47
2022/05/25 10:54:47;;;;;;;1.27;0.10;;;27.90;42.40;;;;;;4970915;28;20074;-47
2022/05/25 10:57:39;;;;;;;5.78;0.10;;;27.90;42.30;;;;;;4965584;28;20054;-49
2022/05/25 11:00:11;;;;;;;2.40;0.10;;;27.90;42.60;;;;;;4954475;28;20050;-50
2022/05/25 11:03:04;;;;;;;4.55;1.00;;;27.80;42.50;;;;;;4970496;28;20516;-52
2022/05/25 11:05:44;;;;;;;2.50;0.10;;;27.80;42.40;;;;;;4965298;28;20134;-47
2022/05/25 11:08:21;;;;;;;4.68;1.02;;;27.80;42.50;;;;;;4970348;28;20626;-48
2022/05/25 11:10:53;;;;;;;3.85;0.35;;;27.80;42.50;;;;;;4955179;28;20406;-57
2022/05/25 11:14:01;;;;;;;2.28;0.10;;;27.80;42.40;;;;;;4970510;28;20102;-50
2022/05/25 11:16:44;;;;;;;0.40;0.40;;;27.80;42.30;;;;;;4961594;28;20106;-50
2022/05/25 11:19:37;;;;;;;2.17;0.10;;;27.80;42.50;;;;;;4970536;28;20050;-53
2022/05/25 11:22:22;;;;;;;2.25;0.25;;;27.80;42.40;;;;;;4968269;28;20094;-51
2022/05/25 11:25:13;;;;;;;1.00;0.10;;;27.70;42.30;;;;;;4970240;28;20051;-51
2022/05/25 11:27:54;;;;;;;1.42;0.10;;;27.70;42.30;;;;;;4970024;28;20047;-53
2022/05/25 11:30:29;;;;;;;0.80;0.10;;;27.70;42.10;;;;;;4970305;28;20074;-52
2022/05/25 11:33:11;;;;;;;1.80;0.83;;;27.70;42.10;;;;;;4970403;28;20404;-47
2022/05/25 11:35:49;;;;;;;2.15;0.10;;;27.70;42.10;;;;;;4969296;28;20377;-49
2022/05/25 11:38:28;;;;;;;1.58;0.10;;;27.70;42.10;;;;;;4969297;28;20042;-50
2022/05/25 11:41:06;;;;;;;2.92;0.10;;;27.70;42.40;;;;;;4968313;28;20043;-50
2022/05/25 11:43:53;;;;;;;1.75;0.08;;;27.70;43.00;;;;;;4971298;28;20054;-52
2022/05/25 11:46:24;;;;;;;;;;;27.70;42.30;;;;;;4970888;28;20470;-48
2022/05/25 11:49:39;;;;;;;1.95;0.10;;;27.60;42.30;;;;;;4969477;28;19932;-49
2022/05/25 11:52:23;;;;;;;0.55;0.47;;;27.60;42.40;;;;;;4970251;28;20047;-50
2022/05/25 11:55:05;;;;;;;0.82;0.00;;;27.60;42.50;;;;;;4966313;28;20400;-51
2022/05/25 11:57:40;;;;;;;0.10;0.00;;;27.70;42.60;;;;;;4970044;28;20047;-51
2022/05/25 12:00:21;;;;;;;0.10;0.08;;;27.70;42.60;;;;;;4970364;28;20463;-50
2022/05/25 12:03:24;;;;;;;2.88;0.00;;;27.70;42.50;;;;;;4970616;28;20047;-51
2022/05/25 12:06:05;;;;;;;0.30;0.00;;;27.70;42.50;;;;;;4968103;28;20118;-54
2022/05/25 12:08:51;;;;;;;1.35;0.10;;;27.70;42.50;;;;;;4952812;28;20059;-52
2022/05/25 12:11:32;;;;;;;0.38;0.13;;;27.70;42.40;;;;;;4969883;28;20499;-51
2022/05/25 12:14:13;;;;;;;0.30;0.10;;;27.70;42.40;;;;;;4971395;28;20470;-51
2022/05/25 12:16:43;;;;;;;0.10;0.00;;;27.70;43.00;;;;;;4971682;28;20046;-50
2022/05/25 12:19:16;;;;;;;0.03;0.00;;;27.80;42.30;;;;;;4970213;28;20051;-48
2022/05/25 12:21:49;;;;;;;0.50;0.10;;;27.80;42.30;;;;;;4970265;28;20046;-50
2022/05/25 12:24:19;;;;;;;0.95;0.10;;;27.80;42.20;;;;;;4970090;28;20419;-51
2022/05/25 12:26:47;;;;;;;0.10;0.00;;;27.80;42.10;;;;;;4970005;28;20046;-49
2022/05/25 12:29:21;;;;;;;0.20;0.00;;;27.90;42.10;;;;;;4969441;28;20553;-49
2022/05/25 12:31:53;;;;;;;0.45;0.00;;;27.90;42.00;;;;;;4971400;28;20050;-51
2022/05/25 12:34:28;;;;;;;1.60;0.00;;;27.90;42.00;;;;;;4969653;28;20035;-50
2022/05/25 12:36:58;;;;;;;0.95;0.08;;;27.90;41.90;;;;;;4970053;28;20130;-51
2022/05/25 12:39:53;;;;;;;0.10;0.00;;;27.90;41.90;;;;;;4965245;28;20039;-52
2022/05/25 12:42:46;;;;;;;0.88;0.05;;;28.00;41.50;;;;;;4962036;28;20111;-59
2022/05/25 12:48:47;;;;;;;0.63;0.00;;;28.00;38.60;;;;;;4883658;29;20049;-48
2022/05/25 12:51:35;;;;;;;0.70;0.00;;;28.00;36.90;;;;;;4886367;29;20053;-52
2022/05/25 12:54:06;;;;;;;0.00;0.00;;;28.00;35.40;;;;;;4881870;29;20101;-51
2022/05/25 12:56:36;;;;;;;0.57;0.00;;;28.10;34.70;;;;;;4870722;29;20791;-55
2022/05/25 12:59:08;;;;;;;0.25;0.25;;;28.10;33.70;;;;;;4886123;29;20048;-55
2022/05/25 13:01:38;;;;;;;0.10;0.00;;;28.20;33.50;;;;;;4888341;29;20084;-60
2022/05/25 13:04:19;;;;;;;0.00;0.00;;;28.30;33.40;;;;;;4886136;29;20158;-50
2022/05/25 13:07:20;;;;;;;1.38;0.00;;;28.40;32.80;;;;;;4885789;29;20642;-55
2022/05/25 13:09:49;;;;;;;0.00;0.00;;;28.40;32.10;;;;;;4812181;29;20054;-50
2022/05/25 13:12:59;;;;;;;2.03;0.00;;;28.50;31.60;;;;;;4812129;29;20061;-53
2022/05/25 13:15:44;;;;;;;0.10;0.10;;;28.60;31.50;;;;;;4808177;29;20508;-52
2022/05/25 13:18:46;;;;;;;0.10;0.00;;;28.60;31.40;;;;;;4812234;29;20161;-60
2022/05/25 13:21:39;;;;;;;0.17;0.00;;;28.80;31.00;;;;;;4808649;29;20312;-50
2022/05/25 13:24:43;;;;;;;0.00;0.00;;;28.80;31.10;;;;;;4812315;29;20060;-60
2022/05/25 13:27:46;;;;;;;0.35;0.00;;;28.90;30.90;;;;;;4887689;29;20117;-55
2022/05/25 13:30:39;;;;;;;0.52;0.00;;;29.00;30.60;;;;;;4883833;29;20041;-57
2022/05/25 13:33:22;;;;;;;0.65;0.00;;;29.10;30.50;;;;;;4878755;29;20575;-54
2022/05/25 13:35:52;;;;;;;0.65;0.00;;;29.20;30.20;;;;;;4882575;29;20304;-54
2022/05/25 13:38:30;;;;;;;2.92;0.00;;;29.30;30.50;;;;;;4886049;29;20075;-52
2022/05/25 13:41:04;;;;;;;0.45;0.20;;;29.40;30.00;;;;;;4882417;29;20460;-48
2022/05/25 13:43:44;;;;;;;0.25;0.00;;;29.40;29.70;;;;;;4885174;29;20060;-52
2022/05/25 13:46:29;;;;;;;0.90;0.35;;;29.50;29.60;;;;;;4910960;28;20478;-47
2022/05/25 13:48:57;;;;;;;0.50;0.00;;;29.60;29.60;;;;;;4962131;28;20090;-51